Time;durP1;ratioP1;P1;durP2;ratioP2;P2;SDS_P1;SDS_P2;PMS_P1;PMS_P2;Temp;Humidity;BMP_temperature;BMP_pressure;BME280_temperature;BME280_humidity;BME280_pressure;Samples;Min_cycle;Max_cycle;Signal;HPM_P1;HPM_P2
2022/08/13 00:00:39;;;;;;;4.60;4.20;;;16.60;99.90;;;;;;5032529;28;20199;-79
2022/08/13 00:03:13;;;;;;;4.60;4.30;;;16.60;99.90;;;;;;5042660;28;20199;-78
2022/08/13 00:05:40;;;;;;;4.60;4.20;;;16.50;99.90;;;;;;5036993;28;20208;-78
2022/08/13 00:08:07;;;;;;;4.87;4.47;;;16.50;99.90;;;;;;5035968;28;20569;-78
2022/08/13 00:10:34;;;;;;;4.97;4.47;;;16.40;99.90;;;;;;5031720;28;20310;-78
2022/08/13 00:13:03;;;;;;;4.60;4.30;;;16.40;99.90;;;;;;5036790;28;20660;-78
2022/08/13 00:15:35;;;;;;;4.83;4.43;;;16.30;99.90;;;;;;5027936;28;20703;-78
2022/08/13 00:18:06;;;;;;;4.93;4.53;;;16.30;99.90;;;;;;5048412;28;20264;-78
2022/08/13 00:20:38;;;;;;;4.20;3.90;;;16.30;99.90;;;;;;5034350;28;20200;-79
2022/08/13 00:23:07;;;;;;;4.30;4.10;;;16.30;99.90;;;;;;5035247;28;20206;-79
2022/08/13 00:25:34;;;;;;;4.70;4.40;;;16.30;99.90;;;;;;5035192;28;20700;-78
2022/08/13 00:28:04;;;;;;;4.70;4.30;;;16.30;99.90;;;;;;5040422;28;20217;-79
2022/08/13 00:30:33;;;;;;;4.70;4.30;;;16.30;99.90;;;;;;5035267;28;20194;-78
2022/08/13 00:33:02;;;;;;;4.40;4.10;;;16.20;99.90;;;;;;5034877;28;20618;-78
2022/08/13 00:35:29;;;;;;;4.77;4.37;;;16.20;99.90;;;;;;5037118;28;20273;-78
2022/08/13 00:37:57;;;;;;;4.20;3.90;;;16.20;99.90;;;;;;5039421;28;20199;-79
2022/08/13 00:40:24;;;;;;;4.50;4.20;;;16.10;99.90;;;;;;5032728;28;20311;-78
2022/08/13 00:42:52;;;;;;;4.20;4.00;;;16.10;99.90;;;;;;5026686;28;20212;-78
2022/08/13 00:45:21;;;;;;;4.33;3.93;;;16.10;99.90;;;;;;5038924;28;20270;-78
2022/08/13 00:50:34;;;;;;;4.00;3.73;;;16.00;99.90;;;;;;5031070;28;20190;-79
2022/08/13 00:53:01;;;;;;;3.67;3.47;;;16.00;99.90;;;;;;5037406;28;20202;-78
2022/08/13 00:55:28;;;;;;;4.20;3.90;;;16.00;99.90;;;;;;5039549;28;20211;-79
2022/08/13 00:57:55;;;;;;;4.10;3.80;;;16.00;99.90;;;;;;5040095;28;20277;-79
2022/08/13 01:00:26;;;;;;;4.40;4.10;;;15.90;99.90;;;;;;5031825;28;20212;-78
2022/08/13 01:02:55;;;;;;;4.40;3.90;;;15.90;99.90;;;;;;5039120;28;20191;-78
2022/08/13 01:05:23;;;;;;;4.50;4.20;;;15.80;99.90;;;;;;5036487;28;20633;-78
2022/08/13 01:07:51;;;;;;;4.00;3.70;;;15.70;99.90;;;;;;5034096;28;20293;-78
2022/08/13 01:10:19;;;;;;;4.37;4.07;;;15.70;99.90;;;;;;5028579;28;20191;-76
2022/08/13 01:12:50;;;;;;;4.00;3.70;;;15.60;99.90;;;;;;5037612;28;20199;-79
2022/08/13 01:15:19;;;;;;;4.00;3.80;;;15.60;99.90;;;;;;5031753;28;20224;-78
2022/08/13 01:17:52;;;;;;;4.40;4.10;;;15.60;99.90;;;;;;5027072;28;20276;-78
2022/08/13 01:20:20;;;;;;;4.53;4.23;;;15.60;99.90;;;;;;5039119;28;20214;-79
2022/08/13 01:22:51;;;;;;;4.13;3.83;;;15.50;99.90;;;;;;5028880;28;20195;-79
2022/08/13 01:25:19;;;;;;;4.77;4.33;;;15.50;99.90;;;;;;5034031;28;20206;-78
2022/08/13 01:27:46;;;;;;;4.47;4.10;;;15.40;99.90;;;;;;5031020;28;20237;-79
2022/08/13 01:30:19;;;;;;;4.33;4.00;;;15.30;99.90;;;;;;5040467;28;20600;-78
2022/08/13 01:32:46;;;;;;;4.30;4.00;;;15.20;99.90;;;;;;5036931;28;20200;-78
2022/08/13 01:35:15;;;;;;;4.50;4.10;;;15.20;99.90;;;;;;5032264;28;20224;-78
2022/08/13 01:37:44;;;;;;;4.80;4.30;;;15.10;99.90;;;;;;5030319;28;20199;-78
2022/08/13 01:40:12;;;;;;;4.60;4.20;;;15.20;99.90;;;;;;5031660;28;20231;-79
2022/08/13 01:42:43;;;;;;;4.47;4.07;;;15.10;99.90;;;;;;5032620;28;20199;-79
2022/08/13 01:45:12;;;;;;;4.27;3.90;;;15.10;99.90;;;;;;5017224;28;20782;-78
2022/08/13 01:50:29;;;;;;;4.30;4.00;;;15.20;99.90;;;;;;5027309;28;20198;-78
2022/08/13 01:53:00;;;;;;;4.53;4.20;;;15.20;99.90;;;;;;5026777;28;20192;-79
2022/08/13 01:55:37;;;;;;;4.20;3.90;;;15.10;99.90;;;;;;5035952;28;20233;-78
2022/08/13 01:58:06;;;;;;;4.30;4.00;;;15.10;99.90;;;;;;5027564;28;20207;-78
2022/08/13 02:00:34;;;;;;;4.40;4.10;;;15.10;99.90;;;;;;5028675;28;20691;-79
2022/08/13 02:03:02;;;;;;;4.83;4.23;;;15.20;99.90;;;;;;5038789;28;20224;-78
2022/08/13 02:05:29;;;;;;;4.57;4.27;;;15.20;99.90;;;;;;5038060;28;20221;-78
2022/08/13 02:07:57;;;;;;;4.50;4.10;;;15.10;99.90;;;;;;5040006;28;20286;-78
2022/08/13 02:10:24;;;;;;;4.60;4.30;;;15.10;99.90;;;;;;5035649;28;20364;-78
2022/08/13 02:12:53;;;;;;;4.20;3.90;;;15.10;99.90;;;;;;5035126;28;20191;-78
2022/08/13 02:15:19;;;;;;;4.13;3.93;;;15.00;99.90;;;;;;5037271;28;20216;-78
2022/08/13 02:17:46;;;;;;;3.90;3.70;;;15.00;99.90;;;;;;5037115;28;20612;-79
2022/08/13 02:20:17;;;;;;;4.47;4.17;;;15.00;99.90;;;;;;5038646;28;20216;-78
2022/08/13 02:22:46;;;;;;;3.93;3.73;;;15.00;99.90;;;;;;5040297;28;20214;-78
2022/08/13 02:25:13;;;;;;;4.40;4.10;;;15.00;99.90;;;;;;5026261;28;20295;-78
2022/08/13 02:27:41;;;;;;;4.07;3.87;;;15.00;99.90;;;;;;5031501;28;20197;-76
2022/08/13 02:30:11;;;;;;;4.40;4.10;;;14.90;99.90;;;;;;5038252;28;20294;-78
2022/08/13 02:32:38;;;;;;;4.30;4.00;;;15.00;99.90;;;;;;5043197;28;20714;-78
2022/08/13 02:35:06;;;;;;;4.30;4.00;;;15.00;99.90;;;;;;5034989;28;20217;-78
2022/08/13 02:37:33;;;;;;;4.00;3.70;;;15.00;99.90;;;;;;5036725;28;20665;-78
2022/08/13 02:40:01;;;;;;;4.13;3.93;;;15.00;99.90;;;;;;5039385;28;20261;-79
2022/08/13 02:42:31;;;;;;;4.17;3.87;;;15.00;99.90;;;;;;5033953;28;20755;-78
2022/08/13 02:44:59;;;;;;;4.20;3.90;;;15.00;99.90;;;;;;5039686;28;20225;-78
2022/08/13 02:47:28;;;;;;;4.10;3.90;;;15.00;99.90;;;;;;5037129;28;20200;-78
2022/08/13 02:49:59;;;;;;;4.13;3.93;;;15.00;99.90;;;;;;5031347;28;20201;-78
2022/08/13 02:52:28;;;;;;;4.70;4.40;;;15.00;99.90;;;;;;5033550;28;20213;-79
2022/08/13 02:54:55;;;;;;;4.30;4.00;;;14.90;99.90;;;;;;5036165;28;20299;-78
2022/08/13 02:57:22;;;;;;;4.20;3.90;;;14.80;99.90;;;;;;5039922;28;20250;-78
2022/08/13 02:59:49;;;;;;;4.50;4.20;;;14.80;99.90;;;;;;5039075;28;20572;-78
2022/08/13 03:02:17;;;;;;;4.30;4.00;;;14.80;99.90;;;;;;5034140;28;20232;-79
2022/08/13 03:04:49;;;;;;;4.63;4.33;;;14.80;99.90;;;;;;5038921;28;20697;-78
2022/08/13 03:07:17;;;;;;;4.50;4.20;;;14.80;99.90;;;;;;5035080;28;20195;-78
2022/08/13 03:09:44;;;;;;;4.63;4.30;;;14.80;99.90;;;;;;5037758;28;20672;-78
2022/08/13 03:12:12;;;;;;;4.90;4.50;;;14.70;99.90;;;;;;5020405;28;20657;-78
2022/08/13 03:14:39;;;;;;;4.70;4.30;;;14.70;99.90;;;;;;5041007;28;20211;-78
2022/08/13 03:17:06;;;;;;;4.57;4.27;;;14.70;99.90;;;;;;5034398;28;20194;-79
2022/08/13 03:19:33;;;;;;;4.43;4.17;;;14.60;99.90;;;;;;5034032;28;20201;-78
2022/08/13 03:22:01;;;;;;;4.60;4.30;;;14.60;99.90;;;;;;5040578;28;20227;-79
2022/08/13 03:24:28;;;;;;;5.40;4.43;;;14.50;99.90;;;;;;5038762;28;20212;-78
2022/08/13 03:26:55;;;;;;;5.30;4.90;;;14.50;99.90;;;;;;5041442;28;20197;-77
2022/08/13 03:29:24;;;;;;;5.13;4.73;;;14.40;99.90;;;;;;5023781;28;20188;-79
2022/08/13 03:31:51;;;;;;;4.90;4.60;;;14.30;99.90;;;;;;5027566;28;20195;-77
2022/08/13 03:34:20;;;;;;;5.53;5.13;;;14.20;99.90;;;;;;5023818;28;20204;-77
2022/08/13 03:36:47;;;;;;;5.57;5.17;;;14.10;99.90;;;;;;5016061;28;20228;-78
2022/08/13 03:39:15;;;;;;;5.43;5.03;;;14.10;99.90;;;;;;5014141;28;20580;-77
2022/08/13 03:41:42;;;;;;;5.07;4.77;;;14.00;99.90;;;;;;5016721;28;20622;-77
2022/08/13 03:44:09;;;;;;;5.50;5.00;;;13.90;99.90;;;;;;5015702;28;20241;-78
2022/08/13 03:46:36;;;;;;;5.67;5.27;;;13.80;99.90;;;;;;5016377;28;20610;-77
2022/08/13 03:49:03;;;;;;;5.30;5.00;;;13.80;99.90;;;;;;5023824;28;20291;-77
2022/08/13 03:51:30;;;;;;;5.73;5.33;;;13.80;99.90;;;;;;5023356;28;20193;-77
2022/08/13 03:53:59;;;;;;;5.07;4.70;;;13.80;99.90;;;;;;5018340;28;20199;-78
2022/08/13 03:56:27;;;;;;;5.57;5.07;;;13.80;99.90;;;;;;5015943;28;20298;-78
2022/08/13 03:58:54;;;;;;;5.83;5.37;;;13.70;99.90;;;;;;5016102;28;20452;-78
2022/08/13 04:01:21;;;;;;;5.60;5.20;;;13.70;99.90;;;;;;5015828;28;20723;-78
2022/08/13 04:03:48;;;;;;;5.47;5.07;;;13.60;99.90;;;;;;5015651;28;20724;-78
2022/08/13 04:06:19;;;;;;;5.47;5.07;;;13.60;99.90;;;;;;5014559;28;20216;-78
2022/08/13 04:08:48;;;;;;;4.90;4.60;;;13.60;99.90;;;;;;5016401;28;20242;-78
2022/08/13 04:11:18;;;;;;;5.20;4.80;;;13.60;99.90;;;;;;5034850;28;20203;-77
2022/08/13 04:13:46;;;;;;;6.00;5.50;;;13.50;99.90;;;;;;5036704;28;20195;-83
2022/08/13 04:16:16;;;;;;;5.60;5.20;;;13.50;99.90;;;;;;5036968;28;20214;-76
2022/08/13 04:18:44;;;;;;;7.20;5.07;;;13.60;99.90;;;;;;5041945;28;20250;-78
2022/08/13 04:21:14;;;;;;;5.60;5.20;;;13.60;99.90;;;;;;5033039;28;20215;-78
2022/08/13 04:23:43;;;;;;;5.90;5.47;;;13.50;99.90;;;;;;5032766;28;20199;-78
2022/08/13 04:26:11;;;;;;;5.53;5.13;;;13.50;99.90;;;;;;5027879;28;20218;-78
2022/08/13 04:28:39;;;;;;;5.80;5.40;;;13.50;99.90;;;;;;5035498;28;20202;-78
2022/08/13 04:31:09;;;;;;;5.90;5.40;;;13.50;99.90;;;;;;5041040;28;20622;-78
2022/08/13 04:33:37;;;;;;;6.00;5.50;;;13.60;99.90;;;;;;5034984;28;20733;-78
2022/08/13 04:36:04;;;;;;;6.63;5.60;;;13.60;99.90;;;;;;5033757;28;20719;-78
2022/08/13 04:38:31;;;;;;;5.73;5.30;;;13.60;99.90;;;;;;5034388;28;20204;-78
2022/08/13 04:40:59;;;;;;;5.83;5.33;;;13.60;99.90;;;;;;5032427;28;20606;-78
2022/08/13 04:43:26;;;;;;;6.03;5.53;;;13.60;99.90;;;;;;5030277;28;20586;-79
2022/08/13 04:45:53;;;;;;;5.83;5.40;;;13.60;99.90;;;;;;5038637;28;20237;-77
2022/08/13 04:48:21;;;;;;;5.80;5.40;;;13.70;99.90;;;;;;5032461;28;20198;-79
2022/08/13 04:50:49;;;;;;;6.17;5.67;;;13.70;99.90;;;;;;5038959;28;20215;-78
2022/08/13 04:53:23;;;;;;;6.50;5.60;;;13.80;99.90;;;;;;5039745;28;20275;-79
2022/08/13 04:55:51;;;;;;;6.00;5.50;;;13.90;99.90;;;;;;5032024;28;20219;-80
2022/08/13 04:58:18;;;;;;;5.80;5.40;;;13.90;99.90;;;;;;5037007;28;20207;-79
2022/08/13 05:00:45;;;;;;;5.67;5.27;;;14.00;99.90;;;;;;5036093;28;20199;-79
2022/08/13 05:03:15;;;;;;;6.07;5.67;;;14.00;99.90;;;;;;5041461;28;20203;-79
2022/08/13 05:05:45;;;;;;;5.60;5.30;;;14.10;99.90;;;;;;5034608;28;20708;-79
2022/08/13 05:08:14;;;;;;;5.50;5.20;;;14.20;99.90;;;;;;5028210;28;20195;-80
2022/08/13 05:10:40;;;;;;;6.10;5.70;;;14.20;99.90;;;;;;5039427;28;20301;-80
2022/08/13 05:13:20;;;;;;;6.53;6.13;;;14.30;99.90;;;;;;5040383;28;20264;-79
2022/08/13 05:15:47;;;;;;;5.80;5.40;;;14.50;99.90;;;;;;5036595;28;20218;-80
2022/08/13 05:18:14;;;;;;;5.50;5.10;;;14.60;99.90;;;;;;5032339;28;20199;-79
2022/08/13 05:20:43;;;;;;;6.13;5.70;;;14.70;99.90;;;;;;5037271;28;20200;-80
2022/08/13 05:23:10;;;;;;;5.87;5.30;;;14.80;99.90;;;;;;5032323;28;20618;-79
2022/08/13 05:25:37;;;;;;;6.07;5.57;;;14.90;99.90;;;;;;5039499;28;20636;-80
2022/08/13 05:28:04;;;;;;;5.80;5.40;;;15.00;99.90;;;;;;5034658;28;20212;-80
2022/08/13 05:30:31;;;;;;;6.47;5.97;;;15.20;99.90;;;;;;5040390;28;20286;-79
2022/08/13 05:32:58;;;;;;;5.90;5.50;;;15.40;99.90;;;;;;5034359;28;20181;-81
2022/08/13 05:35:25;;;;;;;6.00;5.60;;;15.60;99.90;;;;;;5036226;28;20316;-80
2022/08/13 05:37:54;;;;;;;5.50;5.10;;;15.80;99.90;;;;;;5040245;28;20220;-80
2022/08/13 05:40:21;;;;;;;5.30;4.90;;;16.00;99.90;;;;;;5038363;28;20254;-81
2022/08/13 05:42:48;;;;;;;5.50;5.20;;;16.30;99.90;;;;;;5042508;28;20626;-80
2022/08/13 05:45:15;;;;;;;2.87;2.33;;;16.50;99.90;;;;;;5065708;22;20234;-81
2022/08/13 05:47:43;;;;;;;2.93;2.50;;;16.50;99.90;;;;;;5059149;28;20198;-82
2022/08/13 05:50:14;;;;;;;3.63;3.33;;;16.80;99.90;;;;;;5055375;28;20187;-79
2022/08/13 05:52:42;;;;;;;2.57;2.37;;;17.20;99.90;;;;;;5057037;28;20198;-81
2022/08/13 05:55:12;;;;;;;2.40;2.20;;;17.30;99.90;;;;;;5048131;28;20215;-79
2022/08/13 05:57:39;;;;;;;3.20;2.00;;;17.30;99.90;;;;;;5029953;28;20291;-79
2022/08/13 06:05:37;;;;;;;2.23;2.13;;;17.20;99.90;;;;;;5024165;28;20216;-77
2022/08/13 06:08:04;;;;;;;2.20;2.10;;;17.20;99.90;;;;;;5031189;28;20335;-77
2022/08/13 06:10:33;;;;;;;2.23;2.10;;;17.30;99.90;;;;;;5029911;28;20286;-76
2022/08/13 06:13:01;;;;;;;2.13;1.97;;;17.30;99.90;;;;;;5026690;28;20676;-77
2022/08/13 06:15:28;;;;;;;2.17;2.07;;;17.40;99.90;;;;;;5034756;28;20208;-78
2022/08/13 06:17:55;;;;;;;2.50;2.30;;;17.50;99.90;;;;;;5032659;28;20212;-78
2022/08/13 06:20:22;;;;;;;2.10;1.90;;;17.50;99.90;;;;;;5028408;28;20227;-77
2022/08/13 06:22:52;;;;;;;2.07;1.97;;;17.60;99.90;;;;;;5035661;28;20221;-78
2022/08/13 06:25:19;;;;;;;2.20;2.10;;;17.70;99.90;;;;;;5026284;28;20271;-78
2022/08/13 06:27:47;;;;;;;2.00;1.90;;;17.80;99.90;;;;;;5034782;28;20196;-78
2022/08/13 06:30:17;;;;;;;2.30;2.10;;;18.00;99.90;;;;;;5034426;28;20246;-78
2022/08/13 06:32:44;;;;;;;2.20;2.10;;;18.10;99.90;;;;;;5037656;28;20271;-78
2022/08/13 06:35:11;;;;;;;2.50;2.30;;;18.20;99.90;;;;;;5030866;28;20211;-78
2022/08/13 06:37:41;;;;;;;2.50;2.30;;;18.30;99.90;;;;;;5034952;28;20204;-78
2022/08/13 06:40:11;;;;;;;2.90;2.60;;;18.20;99.90;;;;;;5035914;28;20287;-79
2022/08/13 06:42:43;;;;;;;2.20;2.00;;;18.30;99.90;;;;;;5036669;28;20251;-78
2022/08/13 06:45:13;;;;;;;3.13;2.30;;;18.50;99.90;;;;;;5030901;28;20229;-78
2022/08/13 06:47:40;;;;;;;2.50;2.30;;;18.60;99.90;;;;;;5035518;28;20207;-78
2022/08/13 06:50:10;;;;;;;3.23;2.90;;;18.80;99.90;;;;;;5026632;28;20217;-78
2022/08/13 06:52:38;;;;;;;3.40;2.40;;;19.00;99.90;;;;;;5027802;28;20221;-79
2022/08/13 06:55:07;;;;;;;2.60;2.40;;;19.00;99.90;;;;;;5032769;28;20230;-80
2022/08/13 06:57:36;;;;;;;2.87;2.27;;;19.20;99.90;;;;;;5030795;28;20654;-78
2022/08/13 07:00:07;;;;;;;2.40;2.20;;;19.30;99.90;;;;;;5031567;28;20205;-78
2022/08/13 07:02:36;;;;;;;2.40;2.20;;;19.60;99.90;;;;;;5032250;28;20219;-78
2022/08/13 07:05:04;;;;;;;1.90;1.80;;;19.90;99.90;;;;;;5026661;28;20283;-78
2022/08/13 07:07:32;;;;;;;2.93;2.33;;;20.00;99.90;;;;;;5031527;28;20203;-78
2022/08/13 07:10:00;;;;;;;3.70;2.50;;;20.00;99.90;;;;;;5030581;28;20286;-80
2022/08/13 07:12:27;;;;;;;3.07;2.00;;;20.20;99.90;;;;;;5030304;28;20279;-79
2022/08/13 07:14:54;;;;;;;5.00;4.70;;;20.30;99.90;;;;;;5032047;28;20306;-81
2022/08/13 07:17:23;;;;;;;2.40;2.20;;;20.30;99.90;;;;;;5027030;28;20204;-83
2022/08/13 07:19:51;;;;;;;3.27;2.07;;;20.30;99.90;;;;;;5033126;28;20192;-80
2022/08/13 07:22:18;;;;;;;4.13;3.83;;;20.70;99.90;;;;;;5028433;28;20627;-81
2022/08/13 07:24:50;;;;;;;2.30;2.10;;;20.80;99.90;;;;;;5035963;28;20250;-79
2022/08/13 07:27:17;;;;;;;5.17;4.83;;;21.00;99.90;;;;;;5036657;28;20656;-80
2022/08/13 07:29:47;;;;;;;5.30;4.80;;;21.30;99.90;;;;;;5030611;28;20206;-81
2022/08/13 07:32:15;;;;;;;3.60;3.30;;;21.70;99.90;;;;;;5028862;28;20184;-81
2022/08/13 07:34:42;;;;;;;3.00;2.70;;;21.90;99.90;;;;;;5033690;28;20657;-79
2022/08/13 07:37:18;;;;;;;5.50;5.00;;;22.30;99.90;;;;;;5034929;28;20258;-81
2022/08/13 07:39:45;;;;;;;5.60;5.10;;;22.50;99.90;;;;;;5035576;28;20195;-82
2022/08/13 07:42:15;;;;;;;5.30;4.90;;;23.00;99.90;;;;;;5023995;28;20255;-80
2022/08/13 07:44:42;;;;;;;4.30;4.00;;;23.30;99.90;;;;;;5031379;28;20204;-80
2022/08/13 07:47:14;;;;;;;5.83;5.10;;;23.30;99.90;;;;;;5034381;28;20200;-79
2022/08/13 07:49:44;;;;;;;5.80;5.30;;;23.30;99.90;;;;;;5034403;28;20196;-79
2022/08/13 07:52:13;;;;;;;4.77;4.40;;;23.70;99.90;;;;;;5040775;28;20189;-78
2022/08/13 07:54:41;;;;;;;5.37;4.97;;;24.10;99.90;;;;;;5025986;28;20200;-78
2022/08/13 07:57:10;;;;;;;4.00;3.70;;;24.60;99.90;;;;;;5030715;28;20201;-77
2022/08/13 07:59:37;;;;;;;4.80;4.50;;;24.80;98.90;;;;;;5021837;28;20202;-76
2022/08/13 08:02:06;;;;;;;5.77;5.27;;;25.10;97.60;;;;;;5024272;28;20197;-77
2022/08/13 08:04:34;;;;;;;5.60;5.20;;;25.30;98.30;;;;;;5025530;28;20188;-76
2022/08/13 08:07:02;;;;;;;5.67;5.10;;;25.60;97.50;;;;;;5023112;28;20203;-76
2022/08/13 08:09:31;;;;;;;5.80;5.40;;;25.50;96.80;;;;;;5023350;28;20199;-76
2022/08/13 08:14:44;;;;;;;4.63;4.33;;;25.50;96.60;;;;;;5025357;28;20702;-77
2022/08/13 08:17:12;;;;;;;4.60;4.30;;;25.60;96.70;;;;;;5030685;28;20195;-77
2022/08/13 08:19:40;;;;;;;5.50;5.10;;;25.70;96.00;;;;;;5032571;28;20196;-76
2022/08/13 08:22:11;;;;;;;5.50;5.10;;;25.90;95.50;;;;;;5026573;28;20204;-77
2022/08/13 08:24:39;;;;;;;4.80;4.50;;;26.20;96.10;;;;;;5025159;28;20193;-76
2022/08/13 08:27:09;;;;;;;4.87;4.47;;;26.70;95.40;;;;;;5028954;28;20188;-76
2022/08/13 08:29:39;;;;;;;4.93;4.37;;;26.50;93.60;;;;;;5027880;28;20660;-76
2022/08/13 08:32:08;;;;;;;5.10;4.70;;;25.70;95.40;;;;;;5024934;28;20270;-76
2022/08/13 08:34:37;;;;;;;5.30;4.90;;;26.10;95.20;;;;;;5026059;28;20200;-76
2022/08/13 08:37:05;;;;;;;4.43;4.13;;;26.30;95.00;;;;;;5022869;28;20199;-76
2022/08/13 08:42:40;;;;;;;4.00;3.67;;;26.50;94.20;;;;;;5026742;28;20191;-76
2022/08/13 08:45:13;;;;;;;3.53;3.03;;;26.50;94.50;;;;;;5031347;28;20285;-77
2022/08/13 08:47:42;;;;;;;3.90;3.63;;;26.30;93.90;;;;;;5028520;28;20204;-76
2022/08/13 08:50:10;;;;;;;3.20;2.90;;;26.10;94.20;;;;;;5032086;28;20200;-76
2022/08/13 08:55:26;;;;;;;4.23;3.23;;;25.90;94.50;;;;;;5025752;28;20211;-77
2022/08/13 08:57:56;;;;;;;2.90;2.67;;;26.20;94.60;;;;;;5025634;28;20619;-76
2022/08/13 09:00:23;;;;;;;3.30;3.00;;;26.70;94.80;;;;;;5027796;28;20617;-77
2022/08/13 09:02:51;;;;;;;4.03;3.67;;;26.90;94.30;;;;;;5030033;28;20258;-77
2022/08/13 09:05:19;;;;;;;3.50;3.20;;;27.30;94.10;;;;;;5028975;28;20215;-77
2022/08/13 09:07:47;;;;;;;4.70;3.73;;;28.00;94.50;;;;;;5030239;28;20204;-77
2022/08/13 09:10:16;;;;;;;5.50;5.10;;;28.30;92.30;;;;;;5027726;28;20196;-77
2022/08/13 09:12:46;;;;;;;4.80;4.50;;;28.30;92.60;;;;;;5030549;28;20691;-76
2022/08/13 09:15:17;;;;;;;5.07;4.67;;;28.20;93.70;;;;;;5023590;28;20769;-76
2022/08/13 09:17:45;;;;;;;4.77;3.30;;;28.30;92.50;;;;;;5028688;28;20210;-77
2022/08/13 09:20:14;;;;;;;4.73;4.37;;;28.10;92.10;;;;;;5026719;28;20631;-77
2022/08/13 09:22:44;;;;;;;5.23;4.63;;;27.90;91.40;;;;;;5029610;28;20216;-77
2022/08/13 09:25:16;;;;;;;4.57;4.27;;;27.90;91.90;;;;;;5030052;28;20651;-76
2022/08/13 09:27:44;;;;;;;4.93;4.30;;;27.50;93.00;;;;;;5026970;28;20203;-76
2022/08/13 09:30:13;;;;;;;2.00;1.90;;;27.40;93.20;;;;;;5030748;28;20192;-77
2022/08/13 09:32:41;;;;;;;2.30;2.10;;;27.70;93.10;;;;;;5027122;28;20215;-77
2022/08/13 09:35:09;;;;;;;2.40;2.10;;;28.00;92.40;;;;;;5031261;28;20215;-77
2022/08/13 09:37:35;;;;;;;3.60;3.30;;;28.10;92.00;;;;;;5026237;28;20192;-76
2022/08/13 09:40:06;;;;;;;2.57;2.20;;;28.10;93.40;;;;;;5028063;28;20639;-77
2022/08/13 09:42:37;;;;;;;3.83;3.60;;;27.80;92.60;;;;;;5031472;28;20196;-76
2022/08/13 09:45:06;;;;;;;2.87;2.40;;;28.10;92.50;;;;;;5024851;28;20232;-77
2022/08/13 09:47:33;;;;;;;4.00;3.60;;;28.30;91.70;;;;;;5031518;28;20628;-76
2022/08/13 09:50:01;;;;;;;2.70;2.50;;;28.80;91.70;;;;;;5024952;28;20195;-77
2022/08/13 09:52:28;;;;;;;3.00;2.67;;;29.50;91.30;;;;;;5030089;28;20220;-77
2022/08/13 09:54:57;;;;;;;4.60;4.30;;;29.60;88.60;;;;;;5024385;28;20769;-76
2022/08/13 09:57:25;;;;;;;5.00;4.70;;;29.60;90.30;;;;;;5029146;28;20208;-77
2022/08/13 09:59:52;;;;;;;3.87;3.57;;;29.70;89.10;;;;;;5030227;28;20680;-77
2022/08/13 10:02:21;;;;;;;5.23;4.80;;;29.60;87.80;;;;;;5026660;28;20200;-76
2022/08/13 10:04:55;;;;;;;5.10;4.80;;;29.60;88.10;;;;;;5025463;28;20192;-77
2022/08/13 10:07:23;;;;;;;5.40;5.00;;;29.60;89.80;;;;;;5031272;28;20196;-77
2022/08/13 10:09:50;;;;;;;5.40;5.00;;;29.70;86.70;;;;;;5026446;28;20255;-76
2022/08/13 10:12:18;;;;;;;5.20;4.80;;;29.70;86.30;;;;;;5030037;28;20279;-77
2022/08/13 10:14:45;;;;;;;5.10;4.70;;;29.60;85.40;;;;;;5026608;28;20274;-76
2022/08/13 10:17:12;;;;;;;4.53;4.20;;;29.10;86.00;;;;;;5029580;28;20585;-77
2022/08/13 10:19:39;;;;;;;2.77;2.10;;;29.60;84.30;;;;;;5025855;28;20243;-76
2022/08/13 10:22:06;;;;;;;3.57;3.27;;;29.40;84.80;;;;;;5028778;28;20254;-76
2022/08/13 10:24:34;;;;;;;4.50;4.20;;;29.20;84.70;;;;;;5033134;28;20550;-76
2022/08/13 10:27:01;;;;;;;4.60;4.30;;;29.10;81.60;;;;;;5031114;28;20200;-76
2022/08/13 10:29:28;;;;;;;4.37;4.07;;;29.20;82.60;;;;;;5033715;28;20196;-77
2022/08/13 10:31:55;;;;;;;4.57;4.20;;;28.60;81.80;;;;;;5030059;28;20253;-76
2022/08/13 10:34:22;;;;;;;4.50;4.20;;;28.30;83.70;;;;;;5030831;28;20271;-76
2022/08/13 10:36:50;;;;;;;4.60;4.30;;;28.40;84.20;;;;;;5028945;28;20219;-76
2022/08/13 10:39:16;;;;;;;4.37;4.07;;;28.70;86.10;;;;;;5030221;28;20355;-76
2022/08/13 10:41:45;;;;;;;4.60;4.20;;;28.90;85.10;;;;;;5026463;28;20208;-76
2022/08/13 10:44:13;;;;;;;4.30;4.00;;;29.10;83.60;;;;;;5026200;28;20246;-76
2022/08/13 10:46:45;;;;;;;4.83;4.33;;;29.20;84.30;;;;;;5032830;28;20222;-76
2022/08/13 10:49:12;;;;;;;4.77;4.33;;;29.00;84.10;;;;;;5025276;28;20204;-77
2022/08/13 10:51:39;;;;;;;4.40;4.10;;;29.20;85.70;;;;;;5032255;28;20199;-77
2022/08/13 10:54:07;;;;;;;4.80;4.50;;;29.20;83.10;;;;;;5028430;28;20261;-77
2022/08/13 10:56:34;;;;;;;4.73;4.30;;;29.00;84.40;;;;;;5031191;28;20719;-76
2022/08/13 10:59:05;;;;;;;4.77;4.37;;;28.70;83.00;;;;;;5033582;28;20199;-77
2022/08/13 11:01:32;;;;;;;2.73;2.17;;;28.60;84.80;;;;;;5030591;28;20266;-77
2022/08/13 11:04:02;;;;;;;4.80;2.20;;;28.60;83.30;;;;;;5022850;28;20196;-77
2022/08/13 11:06:30;;;;;;;4.60;4.20;;;28.40;84.00;;;;;;5035416;28;20208;-78
2022/08/13 11:08:59;;;;;;;2.40;2.20;;;28.10;84.50;;;;;;5032681;28;20204;-78
2022/08/13 11:11:27;;;;;;;3.43;3.13;;;28.00;85.40;;;;;;5030116;28;20192;-76
2022/08/13 11:13:54;;;;;;;2.60;2.07;;;28.10;85.30;;;;;;5028579;28;20248;-76
2022/08/13 11:19:12;;;;;;;4.60;4.30;;;27.90;84.80;;;;;;5025403;28;20188;-76
2022/08/13 11:21:39;;;;;;;2.50;2.30;;;27.80;84.10;;;;;;5026392;28;20561;-76
2022/08/13 11:24:06;;;;;;;3.30;2.40;;;28.00;85.50;;;;;;5023775;28;20200;-77
2022/08/13 11:26:33;;;;;;;7.83;3.00;;;27.90;82.60;;;;;;5033351;28;20211;-76
2022/08/13 11:28:59;;;;;;;5.10;4.70;;;27.50;84.20;;;;;;5023978;28;20539;-76
2022/08/13 11:31:28;;;;;;;4.97;4.63;;;27.40;85.50;;;;;;5033727;28;20196;-77
2022/08/13 11:33:54;;;;;;;4.90;4.60;;;27.30;84.40;;;;;;5032719;28;20261;-76
2022/08/13 11:36:21;;;;;;;5.10;4.80;;;27.00;84.10;;;;;;5033463;28;20779;-75
2022/08/13 11:38:48;;;;;;;5.23;4.43;;;27.00;80.50;;;;;;5024459;28;20688;-77
2022/08/13 11:41:15;;;;;;;4.80;4.40;;;27.10;77.60;;;;;;5024925;28;20612;-76
2022/08/13 11:43:43;;;;;;;2.83;2.17;;;27.20;78.40;;;;;;5033256;28;20278;-76
2022/08/13 11:46:10;;;;;;;3.40;2.10;;;27.40;78.40;;;;;;5062533;23;20318;-77
2022/08/13 11:48:39;;;;;;;3.50;3.20;;;27.50;76.80;;;;;;5050333;28;20203;-77
2022/08/13 11:51:06;;;;;;;3.43;2.27;;;27.40;76.00;;;;;;5052880;28;20626;-79
2022/08/13 11:53:33;;;;;;;2.80;2.07;;;27.60;76.30;;;;;;5047233;28;20270;-77
2022/08/13 11:56:00;;;;;;;2.20;2.00;;;27.60;75.80;;;;;;5053035;28;20219;-79
2022/08/13 11:58:26;;;;;;;2.03;1.93;;;27.60;75.60;;;;;;5049952;28;20198;-78
2022/08/13 12:00:54;;;;;;;2.17;1.97;;;27.80;76.90;;;;;;5048622;28;20206;-78
2022/08/13 12:03:21;;;;;;;1.93;1.80;;;27.80;77.30;;;;;;5056668;28;20195;-79
2022/08/13 12:05:49;;;;;;;2.80;2.60;;;27.80;75.30;;;;;;5046884;28;20219;-79
2022/08/13 12:08:17;;;;;;;2.23;1.87;;;27.80;75.20;;;;;;5046962;28;20577;-79
2022/08/13 12:10:44;;;;;;;1.83;1.73;;;27.80;76.60;;;;;;5052080;28;20191;-79
2022/08/13 12:13:11;;;;;;;3.33;2.20;;;27.90;76.20;;;;;;5043018;28;20211;-79
2022/08/13 12:15:46;;;;;;;2.33;2.10;;;27.80;76.30;;;;;;5047946;28;20749;-79
2022/08/13 12:18:13;;;;;;;2.20;2.00;;;27.80;75.70;;;;;;5044596;28;20233;-79
2022/08/13 12:20:41;;;;;;;2.00;1.90;;;27.80;75.40;;;;;;5049642;28;20743;-79
2022/08/13 12:23:09;;;;;;;2.50;2.00;;;27.80;74.10;;;;;;5044407;28;20200;-78
2022/08/13 12:25:37;;;;;;;2.87;2.13;;;27.80;73.90;;;;;;5046488;28;20605;-80
2022/08/13 12:28:12;;;;;;;2.03;1.93;;;27.80;75.00;;;;;;5045970;28;20245;-79
2022/08/13 12:30:39;;;;;;;1.80;1.70;;;27.90;74.30;;;;;;5048285;28;20199;-79
2022/08/13 12:33:06;;;;;;;2.30;2.10;;;27.80;73.30;;;;;;5042549;28;20195;-79
2022/08/13 12:35:33;;;;;;;1.90;1.80;;;27.70;72.30;;;;;;5047228;28;20211;-78
2022/08/13 12:38:00;;;;;;;2.20;1.80;;;27.80;73.00;;;;;;5045820;28;20204;-80
2022/08/13 12:40:28;;;;;;;2.43;2.00;;;27.90;74.10;;;;;;5049177;28;20629;-79
2022/08/13 12:42:55;;;;;;;2.37;1.90;;;27.90;73.60;;;;;;5045154;28;20219;-79
2022/08/13 12:45:22;;;;;;;3.53;2.00;;;28.00;73.40;;;;;;5041210;28;20273;-80
2022/08/13 12:47:49;;;;;;;2.83;2.00;;;28.00;72.30;;;;;;5047488;28;20245;-79
2022/08/13 12:50:16;;;;;;;3.23;1.83;;;28.10;72.60;;;;;;5042475;28;20260;-78
2022/08/13 12:52:43;;;;;;;2.00;1.80;;;28.10;72.10;;;;;;5048391;28;20195;-78
2022/08/13 12:55:10;;;;;;;1.80;1.70;;;28.20;72.90;;;;;;5042005;28;20268;-79
2022/08/13 12:57:39;;;;;;;2.53;1.80;;;28.30;72.50;;;;;;5047982;28;20199;-78
2022/08/13 13:00:09;;;;;;;3.90;3.67;;;28.30;73.30;;;;;;5046984;28;20195;-79
2022/08/13 13:02:38;;;;;;;4.30;4.07;;;28.30;73.50;;;;;;5047499;28;20611;-79
2022/08/13 13:05:06;;;;;;;4.30;4.07;;;28.20;71.10;;;;;;5046305;28;20652;-78
2022/08/13 13:07:33;;;;;;;4.30;4.00;;;28.30;72.10;;;;;;5049954;28;20191;-79
2022/08/13 13:10:00;;;;;;;4.40;4.10;;;28.30;71.10;;;;;;5041921;28;20192;-79
2022/08/13 13:12:27;;;;;;;4.87;4.37;;;28.20;71.80;;;;;;5045742;28;20206;-79
2022/08/13 13:14:55;;;;;;;4.50;4.20;;;28.20;72.40;;;;;;5043098;28;20261;-79